Time;durP1;ratioP1;P1;durP2;ratioP2;P2;SDS_P1;SDS_P2;PMS_P1;PMS_P2;Temp;Humidity;BMP_temperature;BMP_pressure;BME280_temperature;BME280_humidity;BME280_pressure;Samples;Min_cycle;Max_cycle;Signal;HPM_P1;HPM_P2
2022/11/27 00:02:12;;;;;;;10.63;8.55;;;16.60;54.00;;;;;;4994207;28;20197;-71
2022/11/27 00:04:39;;;;;;;10.27;8.85;;;16.60;54.00;;;;;;4994488;28;20204;-71
2022/11/27 00:07:06;;;;;;;8.95;8.05;;;16.60;54.00;;;;;;4979934;28;20224;-71
2022/11/27 00:09:33;;;;;;;9.32;8.35;;;16.60;54.10;;;;;;4994808;28;20224;-71
2022/11/27 00:12:01;;;;;;;9.32;8.27;;;16.60;54.50;;;;;;4995037;28;20201;-71
2022/11/27 00:14:28;;;;;;;9.13;8.07;;;16.60;54.30;;;;;;4994574;28;20295;-71
2022/11/27 00:16:58;;;;;;;10.13;8.30;;;16.50;53.90;;;;;;4995526;28;20213;-71
2022/11/27 00:19:26;;;;;;;8.88;7.70;;;16.50;54.10;;;;;;4996604;28;20591;-71
2022/11/27 00:21:53;;;;;;;9.07;7.90;;;16.50;54.30;;;;;;4994588;28;20201;-71
2022/11/27 00:24:21;;;;;;;8.75;7.85;;;16.50;54.10;;;;;;4994380;28;20289;-71
2022/11/27 00:26:48;;;;;;;9.32;7.80;;;16.50;54.10;;;;;;4994296;28;20296;-71
2022/11/27 00:29:16;;;;;;;32.13;15.07;;;16.40;54.30;;;;;;4994442;28;20240;-70
2022/11/27 00:31:42;;;;;;;21.40;13.02;;;16.50;54.20;;;;;;4994364;28;20232;-71
2022/11/27 00:34:11;;;;;;;18.02;11.65;;;16.40;54.30;;;;;;4994055;28;20202;-72
2022/11/27 00:36:39;;;;;;;18.55;11.38;;;16.40;54.40;;;;;;4994146;28;20197;-72
2022/11/27 00:41:43;;;;;;;17.00;11.18;;;16.30;54.10;;;;;;5035977;23;20286;-64
2022/11/27 00:44:10;;;;;;;16.05;10.30;;;16.30;53.70;;;;;;5012658;28;20201;-64
2022/11/27 00:46:39;;;;;;;15.00;10.55;;;16.30;53.70;;;;;;5012317;28;20204;-64
2022/11/27 00:49:06;;;;;;;14.18;10.27;;;16.20;53.80;;;;;;5012271;28;20286;-64
2022/11/27 00:51:35;;;;;;;14.18;10.20;;;16.20;53.70;;;;;;5012298;28;20192;-64
2022/11/27 00:54:02;;;;;;;14.88;9.45;;;16.20;53.70;;;;;;5013486;28;20185;-64
2022/11/27 00:56:31;;;;;;;13.32;9.13;;;16.10;53.60;;;;;;5013577;28;20732;-67
2022/11/27 00:58:58;;;;;;;14.20;9.40;;;16.10;53.70;;;;;;5013460;28;20188;-65
2022/11/27 01:01:26;;;;;;;12.68;8.82;;;16.10;53.90;;;;;;5013366;28;20326;-65
2022/11/27 01:03:54;;;;;;;14.63;9.63;;;16.00;53.70;;;;;;5012064;28;20686;-64
2022/11/27 01:06:21;;;;;;;13.50;9.25;;;16.00;53.80;;;;;;5013488;28;20197;-66
2022/11/27 01:08:49;;;;;;;12.52;8.93;;;16.00;54.00;;;;;;5014779;28;20217;-64
2022/11/27 01:11:17;;;;;;;14.88;9.30;;;16.00;53.80;;;;;;5017617;28;20697;-65
2022/11/27 01:13:45;;;;;;;10.43;8.98;;;16.00;53.70;;;;;;5017343;28;20189;-65
2022/11/27 01:16:12;;;;;;;13.32;9.50;;;15.90;53.70;;;;;;5015900;28;20205;-65
2022/11/27 01:18:40;;;;;;;13.45;9.18;;;15.90;53.70;;;;;;5015830;28;20221;-64
2022/11/27 01:21:08;;;;;;;12.38;8.95;;;15.90;53.80;;;;;;5017228;28;20557;-64
2022/11/27 01:23:35;;;;;;;12.68;8.77;;;15.90;54.00;;;;;;5015774;28;20667;-64
2022/11/27 01:26:04;;;;;;;11.30;9.32;;;15.90;53.80;;;;;;5015684;28;20232;-64
2022/11/27 01:28:31;;;;;;;11.85;8.77;;;15.90;54.50;;;;;;5017040;28;20664;-64
2022/11/27 01:30:58;;;;;;;12.00;9.30;;;15.90;53.90;;;;;;5016437;28;20655;-65
2022/11/27 01:33:25;;;;;;;12.23;9.15;;;15.90;53.90;;;;;;5015696;28;20750;-64
2022/11/27 01:35:55;;;;;;;10.05;8.60;;;15.90;53.80;;;;;;5016007;28;20203;-64
2022/11/27 01:38:22;;;;;;;11.63;8.98;;;15.90;53.90;;;;;;5016735;28;20680;-64
2022/11/27 01:40:49;;;;;;;10.95;8.60;;;15.80;53.80;;;;;;5015395;28;20199;-64
2022/11/27 01:43:17;;;;;;;10.52;8.48;;;15.80;54.00;;;;;;5015513;28;20210;-64
2022/11/27 01:45:44;;;;;;;11.23;8.15;;;15.80;53.80;;;;;;5015526;28;20211;-64
2022/11/27 01:48:12;;;;;;;11.70;8.52;;;15.80;53.80;;;;;;5016438;28;20275;-64
2022/11/27 01:50:39;;;;;;;10.10;8.32;;;15.80;53.80;;;;;;5015534;28;20596;-65
2022/11/27 01:53:09;;;;;;;9.50;8.20;;;15.80;53.90;;;;;;5016568;28;20223;-65
2022/11/27 01:55:41;;;;;;;9.02;7.47;;;15.80;53.90;;;;;;5015275;28;20544;-65
2022/11/27 01:58:09;;;;;;;10.48;7.70;;;15.70;53.60;;;;;;5015052;28;20224;-65
2022/11/27 02:00:38;;;;;;;8.73;7.55;;;15.70;53.80;;;;;;5015229;28;20196;-64
2022/11/27 02:03:06;;;;;;;8.27;7.38;;;15.70;53.60;;;;;;5016238;28;20185;-64
2022/11/27 02:05:32;;;;;;;11.05;8.02;;;15.70;53.80;;;;;;5014888;28;20208;-64
2022/11/27 02:08:01;;;;;;;10.85;8.30;;;15.70;53.70;;;;;;5014666;28;20228;-64
2022/11/27 02:10:35;;;;;;;8.85;7.95;;;15.70;53.70;;;;;;5014872;28;20220;-64
2022/11/27 02:13:05;;;;;;;9.30;7.47;;;15.70;53.60;;;;;;5015079;28;20255;-64
2022/11/27 02:15:34;;;;;;;8.95;8.00;;;15.60;53.70;;;;;;5016129;28;20200;-64
2022/11/27 02:18:09;;;;;;;8.90;7.50;;;15.60;53.60;;;;;;5015019;28;20247;-65
2022/11/27 02:20:43;;;;;;;9.55;7.90;;;15.60;53.50;;;;;;5016423;28;20343;-65
2022/11/27 02:23:29;;;;;;;8.10;7.20;;;15.60;53.60;;;;;;5015113;28;20200;-66
2022/11/27 02:26:07;;;;;;;9.73;7.40;;;15.60;53.70;;;;;;5014850;28;20658;-65
2022/11/27 02:28:42;;;;;;;9.95;7.60;;;15.60;53.80;;;;;;5016177;28;20300;-64
2022/11/27 02:31:13;;;;;;;8.40;7.00;;;15.60;53.50;;;;;;5014753;28;20234;-65
2022/11/27 02:33:41;;;;;;;9.85;7.45;;;15.50;53.50;;;;;;5014838;28;20288;-64
2022/11/27 02:36:12;;;;;;;9.02;7.28;;;15.60;53.60;;;;;;5015603;28;20203;-64
2022/11/27 02:38:40;;;;;;;8.27;6.97;;;15.50;53.70;;;;;;5014560;28;20216;-65
2022/11/27 02:41:09;;;;;;;8.55;6.68;;;15.60;53.30;;;;;;5014550;28;20200;-65
2022/11/27 02:43:37;;;;;;;7.65;6.78;;;15.50;53.60;;;;;;5015826;28;20272;-65
2022/11/27 02:46:04;;;;;;;7.43;6.60;;;15.50;53.50;;;;;;5016030;28;20199;-65
2022/11/27 02:48:34;;;;;;;8.77;7.20;;;15.50;53.50;;;;;;5014188;28;20710;-65
2022/11/27 02:51:02;;;;;;;8.32;7.10;;;15.50;53.40;;;;;;5015439;28;20212;-65
2022/11/27 02:53:30;;;;;;;11.18;6.97;;;15.50;53.40;;;;;;5015688;28;20673;-64
2022/11/27 02:55:58;;;;;;;7.82;6.25;;;15.50;53.30;;;;;;5014112;28;20618;-64
2022/11/27 02:58:26;;;;;;;8.68;6.80;;;15.40;53.50;;;;;;5013886;28;20773;-65
2022/11/27 03:00:53;;;;;;;9.23;7.00;;;15.40;53.50;;;;;;5015297;28;20211;-64
2022/11/27 03:03:22;;;;;;;7.45;6.53;;;15.40;53.30;;;;;;5015397;28;20196;-64
2022/11/27 03:05:52;;;;;;;6.85;6.18;;;15.40;53.90;;;;;;5013805;28;20207;-64
2022/11/27 03:11:11;;;;;;;8.02;6.35;;;15.30;53.20;;;;;;4958139;29;20210;-77
2022/11/27 03:13:39;;;;;;;6.97;6.28;;;15.30;53.20;;;;;;4958165;28;20202;-77
2022/11/27 03:16:10;;;;;;;7.95;6.30;;;15.30;53.30;;;;;;4958512;28;20278;-77
2022/11/27 03:18:39;;;;;;;7.13;5.95;;;15.30;53.30;;;;;;4974370;28;20199;-77
2022/11/27 03:21:11;;;;;;;6.90;6.20;;;15.30;53.40;;;;;;4958776;28;20198;-77
2022/11/27 03:23:38;;;;;;;6.70;6.00;;;15.30;53.30;;;;;;4958164;29;20195;-77
2022/11/27 03:26:06;;;;;;;7.22;6.30;;;15.30;53.30;;;;;;4974343;28;20277;-77
2022/11/27 03:28:35;;;;;;;6.20;5.53;;;15.20;53.40;;;;;;4974052;28;20211;-77
2022/11/27 03:31:02;;;;;;;6.75;6.05;;;15.20;53.30;;;;;;4956675;28;20213;-77
2022/11/27 03:33:29;;;;;;;6.20;5.60;;;15.20;53.30;;;;;;4956804;29;20253;-77
2022/11/27 03:35:56;;;;;;;7.95;5.82;;;15.20;53.30;;;;;;4957871;28;20274;-77
2022/11/27 03:38:24;;;;;;;6.32;5.70;;;15.20;53.20;;;;;;4973389;28;20271;-77
2022/11/27 03:40:55;;;;;;;6.78;6.05;;;15.20;53.20;;;;;;4957302;29;20258;-77
2022/11/27 03:43:23;;;;;;;6.35;5.75;;;15.20;53.30;;;;;;4957347;29;20543;-77
2022/11/27 03:45:52;;;;;;;6.60;5.85;;;15.20;53.50;;;;;;4972531;28;20207;-77
2022/11/27 03:48:23;;;;;;;6.25;5.65;;;15.10;53.10;;;;;;4956088;29;20222;-77
2022/11/27 03:50:57;;;;;;;7.68;6.05;;;15.10;53.10;;;;;;4957131;29;20238;-77
2022/11/27 03:53:30;;;;;;;6.55;5.85;;;15.10;53.00;;;;;;4974815;28;20199;-77
2022/11/27 03:56:01;;;;;;;7.82;5.93;;;15.10;53.00;;;;;;4960488;28;20218;-77
2022/11/27 03:58:31;;;;;;;6.45;5.85;;;15.10;53.10;;;;;;4958784;29;20191;-77
2022/11/27 04:00:59;;;;;;;6.95;5.53;;;15.10;53.10;;;;;;4973130;28;20194;-77
2022/11/27 04:03:28;;;;;;;6.03;5.53;;;15.10;53.70;;;;;;4972345;28;20203;-77
2022/11/27 04:05:55;;;;;;;6.05;5.35;;;15.10;53.20;;;;;;4955970;28;20206;-77
2022/11/27 04:08:22;;;;;;;6.45;5.85;;;15.10;53.10;;;;;;4956963;29;20240;-77
2022/11/27 04:10:50;;;;;;;6.43;5.78;;;15.10;53.00;;;;;;4955933;28;20198;-77
2022/11/27 04:13:17;;;;;;;6.43;5.80;;;15.00;52.90;;;;;;4955923;28;20198;-77
2022/11/27 04:15:45;;;;;;;6.38;5.55;;;15.00;53.10;;;;;;4972242;28;20250;-77
2022/11/27 04:18:12;;;;;;;6.13;5.53;;;15.00;53.10;;;;;;4955492;29;20239;-77
2022/11/27 04:20:39;;;;;;;6.40;5.80;;;15.00;53.40;;;;;;4955503;29;20207;-77
2022/11/27 04:23:06;;;;;;;6.03;5.38;;;15.00;53.50;;;;;;4972258;28;20198;-77
2022/11/27 04:25:34;;;;;;;5.97;5.20;;;15.00;53.70;;;;;;4956044;29;20721;-77
2022/11/27 04:28:02;;;;;;;5.75;5.15;;;15.00;53.70;;;;;;4956761;28;20254;-77
2022/11/27 04:30:29;;;;;;;5.85;5.35;;;15.00;53.70;;;;;;4956622;29;20203;-77
2022/11/27 04:32:57;;;;;;;5.97;5.38;;;15.00;53.80;;;;;;4956852;28;20254;-77
2022/11/27 04:35:24;;;;;;;5.78;4.95;;;15.00;53.90;;;;;;4956049;28;20203;-77
2022/11/27 04:37:52;;;;;;;5.63;5.13;;;15.00;53.90;;;;;;4957229;28;20587;-78
2022/11/27 04:40:19;;;;;;;6.18;5.57;;;15.00;54.40;;;;;;4955450;29;20293;-77
2022/11/27 04:42:46;;;;;;;5.85;5.00;;;15.10;53.90;;;;;;4955024;28;20198;-78
2022/11/27 04:45:15;;;;;;;5.55;5.05;;;15.00;53.70;;;;;;4956067;29;20637;-78
2022/11/27 04:47:42;;;;;;;5.75;5.25;;;15.10;53.90;;;;;;4955288;28;20242;-78
2022/11/27 04:50:10;;;;;;;5.28;4.78;;;15.10;53.70;;;;;;4971121;28;20228;-78
2022/11/27 04:52:37;;;;;;;5.72;5.15;;;15.10;53.60;;;;;;4955578;28;20225;-78
2022/11/27 04:55:04;;;;;;;5.72;5.13;;;15.10;53.50;;;;;;4955321;29;20221;-77
2022/11/27 04:57:31;;;;;;;6.03;5.13;;;15.20;53.50;;;;;;4972900;28;20289;-77
2022/11/27 05:00:00;;;;;;;5.85;5.18;;;15.20;53.40;;;;;;4956004;28;20286;-77
2022/11/27 05:02:28;;;;;;;5.97;5.43;;;15.20;53.40;;;;;;4955712;28;20261;-77
2022/11/27 05:04:56;;;;;;;6.10;5.22;;;15.20;53.30;;;;;;4955396;29;20202;-77
2022/11/27 05:07:23;;;;;;;5.90;5.30;;;15.20;53.20;;;;;;4956753;28;20213;-77
2022/11/27 05:09:50;;;;;;;6.03;5.43;;;15.20;53.20;;;;;;4971553;28;20225;-77
2022/11/27 05:12:18;;;;;;;5.68;4.95;;;15.20;53.00;;;;;;4955423;28;20239;-77
2022/11/27 05:14:45;;;;;;;6.53;5.40;;;15.20;52.90;;;;;;4971122;28;20191;-77
2022/11/27 05:17:13;;;;;;;6.72;5.50;;;15.20;52.90;;;;;;4955148;28;20329;-77
2022/11/27 05:19:41;;;;;;;6.80;5.53;;;15.20;52.80;;;;;;4957430;29;20195;-77
2022/11/27 05:22:09;;;;;;;5.55;5.05;;;15.20;53.10;;;;;;4957445;29;20278;-77
2022/11/27 05:24:36;;;;;;;6.18;5.55;;;15.20;52.50;;;;;;4956373;29;20203;-77
2022/11/27 05:27:03;;;;;;;5.97;5.40;;;15.20;52.40;;;;;;4955674;28;20223;-77
2022/11/27 05:29:31;;;;;;;6.18;5.68;;;15.30;52.50;;;;;;4955559;29;20243;-77
2022/11/27 05:31:58;;;;;;;6.22;5.63;;;15.20;52.40;;;;;;4956634;29;20195;-77
2022/11/27 05:34:25;;;;;;;5.53;5.00;;;15.30;52.30;;;;;;4970852;28;20577;-77
2022/11/27 05:36:54;;;;;;;6.07;5.47;;;15.30;52.20;;;;;;4955369;29;20226;-77
2022/11/27 05:39:21;;;;;;;6.20;5.60;;;15.30;52.20;;;;;;4972829;28;20266;-77
2022/11/27 05:41:48;;;;;;;5.80;5.30;;;15.30;52.00;;;;;;4971537;28;20203;-77
2022/11/27 05:44:16;;;;;;;5.70;5.10;;;15.30;52.00;;;;;;4955855;28;20199;-77
2022/11/27 05:46:43;;;;;;;6.10;5.43;;;15.40;52.00;;;;;;4954998;29;20226;-77
2022/11/27 05:49:11;;;;;;;5.97;5.38;;;15.40;51.80;;;;;;4955137;29;20270;-77
2022/11/27 05:51:38;;;;;;;5.45;4.95;;;15.40;52.00;;;;;;4970958;28;20199;-77
2022/11/27 05:54:07;;;;;;;5.47;4.97;;;15.40;51.60;;;;;;4955728;28;20213;-77
2022/11/27 05:56:34;;;;;;;6.00;5.40;;;15.40;51.40;;;;;;4957927;28;20292;-77
2022/11/27 05:59:02;;;;;;;6.00;5.40;;;15.40;51.60;;;;;;4958272;29;20222;-76
2022/11/27 06:01:29;;;;;;;5.45;4.93;;;15.40;51.50;;;;;;4957980;29;20618;-76
2022/11/27 06:03:56;;;;;;;5.28;4.78;;;15.50;51.90;;;;;;4957420;28;20207;-76
2022/11/27 06:06:23;;;;;;;5.25;4.75;;;15.50;51.70;;;;;;4973476;28;20384;-76
2022/11/27 06:08:50;;;;;;;5.57;5.07;;;15.50;52.20;;;;;;4957187;29;20242;-75
2022/11/27 06:11:20;;;;;;;5.18;4.78;;;15.50;51.90;;;;;;4974071;28;20285;-75
2022/11/27 06:13:47;;;;;;;5.82;5.25;;;15.50;51.30;;;;;;4957807;29;20203;-77
2022/11/27 06:16:15;;;;;;;5.03;4.60;;;15.50;51.30;;;;;;4975035;28;20232;-77
2022/11/27 06:18:42;;;;;;;5.53;5.00;;;15.50;51.20;;;;;;4973486;28;20285;-76
2022/11/27 06:21:10;;;;;;;5.15;4.60;;;15.50;51.30;;;;;;4957317;29;20327;-76
2022/11/27 06:23:37;;;;;;;5.20;4.70;;;15.50;51.00;;;;;;4957983;28;20298;-76
2022/11/27 06:26:14;;;;;;;5.00;4.57;;;15.50;51.10;;;;;;4957296;28;20270;-76
2022/11/27 06:28:43;;;;;;;4.95;4.55;;;15.50;51.30;;;;;;4957174;29;20249;-76
2022/11/27 06:31:11;;;;;;;5.40;4.90;;;15.60;51.40;;;;;;4957000;29;20237;-76
2022/11/27 06:33:39;;;;;;;4.63;4.22;;;15.60;51.20;;;;;;4972792;28;20203;-76
2022/11/27 06:36:06;;;;;;;5.10;4.60;;;15.60;51.20;;;;;;4957953;28;20313;-76
2022/11/27 06:38:33;;;;;;;4.88;4.47;;;15.60;51.50;;;;;;4959758;28;20306;-76
2022/11/27 06:41:04;;;;;;;5.03;4.63;;;15.60;51.20;;;;;;4972902;28;20203;-76
2022/11/27 06:43:32;;;;;;;4.75;4.30;;;15.60;51.10;;;;;;4956610;29;20285;-76
2022/11/27 06:46:01;;;;;;;4.47;4.07;;;15.60;51.20;;;;;;4956576;28;20209;-77
2022/11/27 06:48:29;;;;;;;5.13;4.72;;;15.60;51.10;;;;;;4956393;28;20655;-76
2022/11/27 06:50:59;;;;;;;5.05;4.65;;;15.60;51.00;;;;;;4972438;28;20298;-76
2022/11/27 06:53:26;;;;;;;4.97;4.47;;;15.60;51.10;;;;;;4956893;29;20195;-76
2022/11/27 06:55:53;;;;;;;4.47;4.07;;;15.60;51.00;;;;;;4957203;28;20250;-76
2022/11/27 06:58:20;;;;;;;4.90;4.50;;;15.60;51.40;;;;;;4973054;28;20293;-76
2022/11/27 07:00:47;;;;;;;5.38;4.80;;;15.60;51.00;;;;;;4957121;28;20195;-76
2022/11/27 07:03:16;;;;;;;4.47;4.07;;;15.70;51.10;;;;;;4956850;28;20203;-76
2022/11/27 07:05:43;;;;;;;4.70;4.30;;;15.70;51.10;;;;;;4972403;28;20254;-77
2022/11/27 07:08:10;;;;;;;4.78;4.35;;;15.70;51.10;;;;;;4957525;29;20613;-76
2022/11/27 07:10:37;;;;;;;5.25;4.25;;;15.70;51.60;;;;;;4956262;29;20343;-76
2022/11/27 07:13:05;;;;;;;4.82;4.40;;;15.70;50.80;;;;;;4956505;29;20695;-76
2022/11/27 07:15:32;;;;;;;4.85;4.45;;;15.70;50.50;;;;;;4956242;29;20229;-76
2022/11/27 07:17:59;;;;;;;4.85;4.43;;;15.70;50.90;;;;;;4956271;29;20258;-76
2022/11/27 07:20:28;;;;;;;5.15;4.65;;;15.70;50.70;;;;;;4972778;28;20195;-76
2022/11/27 07:22:55;;;;;;;4.75;4.35;;;15.70;51.60;;;;;;4962820;28;20203;-76
2022/11/27 07:25:23;;;;;;;4.90;4.50;;;15.80;50.90;;;;;;4956930;29;20618;-77
2022/11/27 07:27:50;;;;;;;4.70;4.00;;;15.70;50.50;;;;;;4972714;28;20310;-76
2022/11/27 07:30:17;;;;;;;4.55;4.22;;;15.80;51.00;;;;;;5033074;23;20307;-64
2022/11/27 07:32:44;;;;;;;4.90;4.50;;;15.80;50.40;;;;;;5056190;23;20212;-77
2022/11/27 07:35:11;;;;;;;4.70;4.30;;;15.80;50.40;;;;;;5029377;23;20220;-73
2022/11/27 07:37:40;;;;;;;4.82;4.43;;;15.80;50.60;;;;;;5028219;23;20238;-64
2022/11/27 07:40:08;;;;;;;4.70;4.30;;;15.80;50.60;;;;;;5014597;28;20247;-64
2022/11/27 07:42:35;;;;;;;4.32;3.95;;;15.80;50.40;;;;;;5015755;28;20673;-65
2022/11/27 07:45:03;;;;;;;4.50;4.10;;;15.80;50.50;;;;;;5015169;28;20189;-65
2022/11/27 07:47:30;;;;;;;4.40;4.00;;;15.90;50.50;;;;;;5014007;28;20274;-65
2022/11/27 07:49:59;;;;;;;4.43;4.05;;;15.90;50.70;;;;;;5014155;28;20235;-65
2022/11/27 07:52:26;;;;;;;4.40;4.00;;;15.90;50.40;;;;;;5013401;28;20197;-64
2022/11/27 07:54:55;;;;;;;4.93;4.53;;;15.90;50.80;;;;;;5013549;28;20201;-64
2022/11/27 07:57:22;;;;;;;4.50;4.10;;;16.00;50.70;;;;;;5013439;28;20255;-64
2022/11/27 07:59:49;;;;;;;4.97;4.47;;;16.00;50.40;;;;;;5014533;28;20192;-64
2022/11/27 08:02:16;;;;;;;4.50;4.10;;;16.00;51.00;;;;;;5013316;28;20200;-65
2022/11/27 08:04:43;;;;;;;4.13;3.83;;;16.10;50.20;;;;;;5014918;28;20769;-64
2022/11/27 08:07:10;;;;;;;4.65;4.25;;;16.10;50.00;;;;;;5014980;28;20307;-64
2022/11/27 08:09:38;;;;;;;4.10;3.78;;;16.10;50.60;;;;;;5025595;28;20224;-64
2022/11/27 08:12:07;;;;;;;4.38;3.97;;;16.20;49.80;;;;;;5022442;28;20200;-64
2022/11/27 08:14:34;;;;;;;4.70;4.30;;;16.20;49.60;;;;;;5014112;28;20209;-64
2022/11/27 08:17:01;;;;;;;4.57;4.18;;;16.20;50.20;;;;;;5014822;28;20582;-64
2022/11/27 08:19:29;;;;;;;4.68;4.28;;;16.30;50.00;;;;;;5014733;28;20235;-65
2022/11/27 08:21:57;;;;;;;4.72;4.28;;;16.40;49.70;;;;;;5013130;28;20247;-64
2022/11/27 08:24:24;;;;;;;4.53;4.13;;;16.50;49.40;;;;;;5014067;28;20211;-64
2022/11/27 08:26:52;;;;;;;4.30;3.90;;;16.50;49.60;;;;;;5012661;28;20247;-64
2022/11/27 08:29:20;;;;;;;4.03;3.72;;;16.60;49.30;;;;;;5012593;28;20647;-64
2022/11/27 08:31:47;;;;;;;3.97;3.67;;;16.60;49.30;;;;;;5014127;28;20189;-65
2022/11/27 08:34:14;;;;;;;4.53;4.13;;;16.70;49.30;;;;;;5013901;28;20687;-64
2022/11/27 08:36:42;;;;;;;4.20;3.90;;;16.70;49.00;;;;;;5012616;28;20228;-64
2022/11/27 08:39:09;;;;;;;4.30;3.90;;;16.60;48.70;;;;;;5013978;28;20185;-64
2022/11/27 08:41:37;;;;;;;4.38;3.97;;;16.50;48.90;;;;;;5014417;28;20204;-64
2022/11/27 08:44:04;;;;;;;4.22;3.92;;;16.50;49.20;;;;;;5014436;28;20571;-65
2022/11/27 08:46:33;;;;;;;4.38;4.03;;;16.40;48.90;;;;;;5014224;28;20199;-64
2022/11/27 08:49:00;;;;;;;4.43;4.03;;;16.40;49.10;;;;;;5013599;28;20248;-64
2022/11/27 08:51:28;;;;;;;4.28;3.88;;;16.40;49.10;;;;;;5013805;28;20195;-64
2022/11/27 08:53:55;;;;;;;4.70;4.30;;;16.40;49.40;;;;;;5013650;28;20636;-64
2022/11/27 08:56:23;;;;;;;4.32;4.00;;;16.40;49.30;;;;;;5014163;28;20225;-64
2022/11/27 08:58:50;;;;;;;4.30;3.90;;;16.30;49.70;;;;;;5012772;28;20200;-64
2022/11/27 09:01:18;;;;;;;4.32;3.92;;;16.30;49.70;;;;;;5012621;28;20654;-64
2022/11/27 09:03:47;;;;;;;3.90;3.60;;;16.40;49.60;;;;;;5012670;28;20629;-64
2022/11/27 09:06:15;;;;;;;4.45;4.05;;;16.40;50.00;;;;;;5013903;28;20692;-64
2022/11/27 09:08:42;;;;;;;4.25;3.95;;;16.40;49.90;;;;;;5014168;28;20221;-64
2022/11/27 09:11:10;;;;;;;5.18;4.22;;;16.30;49.50;;;;;;5013445;28;20212;-64
2022/11/27 09:13:39;;;;;;;5.03;4.60;;;16.40;49.60;;;;;;5013743;28;20185;-64
2022/11/27 09:16:07;;;;;;;4.45;4.05;;;16.40;49.50;;;;;;5013826;28;20197;-64
2022/11/27 09:18:34;;;;;;;4.43;4.03;;;16.40;49.70;;;;;;5013563;28;20212;-64
2022/11/27 09:21:04;;;;;;;4.53;4.20;;;16.50;49.60;;;;;;5012348;28;20232;-64
2022/11/27 09:23:31;;;;;;;4.13;3.83;;;16.50;49.30;;;;;;5013542;28;20200;-64
2022/11/27 09:25:58;;;;;;;4.63;4.22;;;16.50;49.50;;;;;;5013704;28;20239;-64
2022/11/27 09:28:26;;;;;;;5.13;4.70;;;16.50;48.90;;;;;;5012285;28;20221;-64
2022/11/27 09:30:54;;;;;;;4.95;4.55;;;16.60;49.40;;;;;;5015189;28;20216;-64
2022/11/27 09:33:22;;;;;;;4.80;4.40;;;16.60;49.00;;;;;;5017955;28;20189;-64
2022/11/27 09:35:49;;;;;;;4.63;4.22;;;16.70;49.30;;;;;;5020475;28;20561;-66
2022/11/27 09:38:17;;;;;;;5.00;4.60;;;16.70;49.10;;;;;;5037202;28;20259;-67
2022/11/27 09:40:45;;;;;;;4.60;4.28;;;16.70;49.00;;;;;;5024427;28;20796;-64
2022/11/27 09:43:12;;;;;;;4.90;4.50;;;16.80;49.70;;;;;;5015680;28;20196;-64
2022/11/27 09:45:42;;;;;;;5.03;4.63;;;16.80;49.40;;;;;;5015918;28;20205;-64
2022/11/27 09:48:12;;;;;;;4.78;4.38;;;16.80;49.10;;;;;;5016881;28;20263;-64
2022/11/27 09:50:48;;;;;;;5.03;4.63;;;16.80;49.70;;;;;;5017160;28;20209;-64
2022/11/27 09:53:23;;;;;;;4.32;4.03;;;16.90;50.00;;;;;;5016536;28;20183;-64
2022/11/27 09:55:50;;;;;;;4.72;4.32;;;16.90;50.10;;;;;;5015775;28;20193;-64
2022/11/27 09:58:19;;;;;;;4.35;3.95;;;16.90;49.30;;;;;;5016706;28;20615;-64
2022/11/27 10:00:46;;;;;;;5.13;4.63;;;16.90;49.30;;;;;;5016569;28;20200;-64
2022/11/27 10:03:14;;;;;;;5.05;4.65;;;16.90;49.30;;;;;;5016760;28;20552;-64
2022/11/27 10:05:44;;;;;;;4.90;4.50;;;16.90;49.20;;;;;;5016587;28;20264;-64
2022/11/27 10:08:30;;;;;;;4.88;4.47;;;17.00;49.30;;;;;;5015085;28;20224;-64
2022/11/27 10:11:05;;;;;;;5.90;4.25;;;16.90;48.90;;;;;;5016251;28;20780;-64
2022/11/27 10:13:41;;;;;;;4.43;4.13;;;17.00;49.20;;;;;;5015186;28;20287;-65
2022/11/27 10:16:11;;;;;;;4.75;4.43;;;17.00;49.30;;;;;;5016045;28;20189;-64
2022/11/27 10:18:39;;;;;;;4.20;3.90;;;17.00;49.30;;;;;;5014869;28;20279;-65
2022/11/27 10:21:09;;;;;;;5.10;4.60;;;17.00;49.30;;;;;;5015978;28;20185;-64
2022/11/27 10:23:43;;;;;;;5.28;4.78;;;17.00;49.30;;;;;;5014920;28;20201;-64
2022/11/27 10:26:14;;;;;;;5.53;5.05;;;17.00;49.10;;;;;;5015136;28;20287;-64
2022/11/27 10:28:44;;;;;;;5.00;4.60;;;17.00;49.10;;;;;;5014663;28;20636;-64
2022/11/27 10:31:13;;;;;;;4.53;4.13;;;17.10;49.20;;;;;;5015026;28;20227;-66
2022/11/27 10:33:43;;;;;;;4.55;4.15;;;17.10;49.30;;;;;;5015988;28;20689;-65
2022/11/27 10:36:13;;;;;;;5.97;4.20;;;17.10;49.70;;;;;;5014662;28;20287;-65
2022/11/27 10:38:42;;;;;;;5.07;4.25;;;17.10;49.40;;;;;;5014847;28;20691;-65
2022/11/27 10:41:11;;;;;;;5.78;4.85;;;17.10;49.10;;;;;;5015559;28;20674;-65
2022/11/27 10:43:38;;;;;;;4.65;4.25;;;17.10;49.60;;;;;;5014852;28;20197;-65
2022/11/27 10:46:09;;;;;;;5.38;4.88;;;17.10;50.30;;;;;;5015742;28;20192;-65
2022/11/27 10:48:35;;;;;;;4.53;4.13;;;17.10;50.00;;;;;;5014645;28;20525;-65
2022/11/27 10:51:03;;;;;;;5.63;4.43;;;17.10;49.90;;;;;;5015883;28;20255;-65
2022/11/27 10:53:31;;;;;;;4.70;4.30;;;17.10;49.80;;;;;;5015684;28;20280;-65
2022/11/27 10:56:09;;;;;;;556.22;321.85;;;17.10;50.10;;;;;;5014384;28;20197;-65
2022/11/27 10:58:40;;;;;;;388.02;202.15;;;17.10;55.20;;;;;;5015533;28;20243;-65
2022/11/27 11:01:08;;;;;;;191.45;94.00;;;17.10;58.40;;;;;;5014180;28;20682;-65
2022/11/27 11:03:35;;;;;;;158.23;77.47;;;17.10;58.00;;;;;;5015375;28;20246;-65
2022/11/27 11:06:04;;;;;;;133.80;66.88;;;17.10;56.20;;;;;;5015600;28;20188;-65
2022/11/27 11:08:31;;;;;;;79.70;41.90;;;17.20;55.50;;;;;;5016042;28;20220;-65
2022/11/27 11:10:59;;;;;;;64.25;34.05;;;17.20;53.90;;;;;;5013853;28;20576;-65
2022/11/27 11:13:28;;;;;;;55.38;33.35;;;17.30;52.80;;;;;;5015264;28;20193;-65
2022/11/27 11:15:57;;;;;;;80.15;40.00;;;17.30;52.50;;;;;;5014183;28;20308;-66
2022/11/27 11:18:25;;;;;;;68.80;35.33;;;17.30;52.80;;;;;;5015515;28;20208;-64
2022/11/27 11:20:53;;;;;;;64.78;34.70;;;17.30;52.90;;;;;;5015251;28;20219;-65
2022/11/27 11:23:26;;;;;;;57.47;32.88;;;17.40;52.80;;;;;;5015646;28;20566;-65
2022/11/27 11:25:54;;;;;;;61.53;33.25;;;17.40;52.50;;;;;;5015681;28;20184;-65
2022/11/27 11:28:21;;;;;;;51.22;30.50;;;17.40;52.50;;;;;;5015263;28;20245;-64
2022/11/27 11:30:59;;;;;;;53.72;30.58;;;17.50;52.60;;;;;;5015462;28;20223;-65
2022/11/27 11:33:27;;;;;;;51.92;29.20;;;17.50;52.50;;;;;;5015485;28;20196;-65
2022/11/27 11:35:54;;;;;;;51.17;29.63;;;17.60;52.50;;;;;;5015747;28;20220;-65
2022/11/27 11:38:30;;;;;;;44.95;26.58;;;17.60;52.70;;;;;;5015291;28;20254;-65
2022/11/27 11:41:02;;;;;;;44.58;27.02;;;17.70;52.50;;;;;;5014030;28;20346;-65
2022/11/27 11:43:32;;;;;;;45.35;27.85;;;17.70;52.10;;;;;;5013803;28;20201;-65
2022/11/27 11:46:15;;;;;;;44.42;26.40;;;17.60;52.40;;;;;;5013032;28;20439;-66
2022/11/27 11:48:52;;;;;;;40.22;24.80;;;17.70;52.30;;;;;;5014084;28;20239;-65
2022/11/27 11:51:22;;;;;;;42.92;23.77;;;17.70;52.30;;;;;;5014954;28;20689;-65
2022/11/27 11:53:51;;;;;;;37.63;21.75;;;17.70;52.40;;;;;;5012715;28;20200;-65
2022/11/27 11:56:24;;;;;;;36.53;22.33;;;17.70;52.10;;;;;;5013044;28;20197;-65
2022/11/27 11:58:54;;;;;;;36.95;20.20;;;17.70;52.30;;;;;;5013065;28;20196;-65
2022/11/27 12:01:30;;;;;;;37.28;20.10;;;17.70;52.50;;;;;;5014290;28;20674;-66
2022/11/27 12:04:02;;;;;;;31.17;18.85;;;17.70;52.30;;;;;;5013001;28;20698;-66
2022/11/27 12:06:36;;;;;;;32.78;18.88;;;17.80;52.00;;;;;;5014477;28;20184;-65
2022/11/27 12:09:14;;;;;;;29.33;17.38;;;17.80;52.80;;;;;;5014458;28;20176;-65
2022/11/27 12:11:43;;;;;;;27.17;16.60;;;17.90;51.90;;;;;;5014293;28;20292;-66
2022/11/27 12:14:16;;;;;;;26.02;15.32;;;17.90;51.70;;;;;;5014031;28;20537;-66
2022/11/27 12:16:52;;;;;;;26.10;15.73;;;17.90;51.70;;;;;;5014001;28;20223;-65
2022/11/27 12:19:46;;;;;;;24.92;14.25;;;18.00;51.70;;;;;;5014209;28;20212;-65
2022/11/27 12:22:18;;;;;;;22.05;14.07;;;18.00;51.70;;;;;;5012780;28;20243;-66
2022/11/27 12:24:49;;;;;;;22.05;13.48;;;18.00;51.40;;;;;;5012787;28;20204;-66
2022/11/27 12:27:22;;;;;;;17.60;12.90;;;18.10;51.30;;;;;;5014076;28;20208;-65
2022/11/27 12:30:09;;;;;;;19.25;12.50;;;18.10;51.10;;;;;;5014189;28;20199;-66
2022/11/27 12:33:03;;;;;;;20.65;12.77;;;18.00;51.10;;;;;;5014030;28;20267;-65
2022/11/27 12:35:32;;;;;;;21.50;11.82;;;18.10;51.10;;;;;;5013992;28;20177;-65
2022/11/27 12:38:12;;;;;;;17.48;11.38;;;18.10;51.60;;;;;;5012505;28;20318;-65
2022/11/27 12:40:48;;;;;;;16.67;11.75;;;18.20;50.90;;;;;;5012816;28;20193;-65
2022/11/27 12:43:19;;;;;;;20.27;11.43;;;18.20;50.90;;;;;;5012718;28;20235;-65
2022/11/27 12:45:47;;;;;;;17.70;10.90;;;18.20;51.30;;;;;;5013979;28;20239;-65
2022/11/27 12:48:18;;;;;;;14.77;10.10;;;18.20;51.20;;;;;;5014089;28;20208;-65
2022/11/27 12:50:47;;;;;;;15.45;9.88;;;18.20;50.90;;;;;;5014067;28;20322;-65
2022/11/27 12:53:16;;;;;;;15.07;9.15;;;18.30;51.00;;;;;;5012457;28;20200;-65
2022/11/27 12:55:45;;;;;;;15.68;9.30;;;18.20;51.10;;;;;;5013856;28;20197;-65
2022/11/27 12:58:18;;;;;;;14.38;8.65;;;18.20;51.50;;;;;;5013842;28;20213;-65